East Machias, Maine
Current Conditions -  °F | °C
As of 5:35 AM on Sunday 26 Oct 2014 (Local Time) from KBHB Reporting Station
Few Clouds Few Clouds  
Wind Chill: 45°   Ceiling: Unl
Heat Index: 45°   Visibility: 7mi
Dew Point: 45°   Wind: 0mph
Humidity: 100%   Direction: NA
Pressure: 29.37"   Gusts: NA
Location:  44.74°N, 67.39°W
Report Text: KBHB 260935Z AUTO 00000KT 7SM FEW070 07/07 A2937 RMK AO1
Loading
Personal Weather Stations






























Interactive Weather Map
Tropical Storm Tracking
New forecast layout! Learn more

10-Day Weather Forecast

Advertisements
Track Severe Weather on mobile